Time;durP1;ratioP1;P1;durP2;ratioP2;P2;SDS_P1;SDS_P2;PMS_P1;PMS_P2;Temp;Humidity;BMP_temperature;BMP_pressure;BME280_temperature;BME280_humidity;BME280_pressure;Samples;Min_cycle;Max_cycle;Signal;HPM_P1;HPM_P2
2022/03/10 00:02:09;;;;;;;13.73;11.73;;;1.80;96.90;;;;;;5035910;28;20497;-81
2022/03/10 00:04:35;;;;;;;14.82;11.63;;;1.80;97.10;;;;;;5036198;28;20042;-80
2022/03/10 00:07:03;;;;;;;16.45;12.00;;;1.80;97.10;;;;;;5021198;28;20405;-77
2022/03/10 00:09:30;;;;;;;15.48;12.30;;;1.80;97.10;;;;;;5041444;28;20112;-78
2022/03/10 00:11:56;;;;;;;18.88;12.45;;;1.80;97.30;;;;;;5041604;28;20053;-78
2022/03/10 00:14:21;;;;;;;15.38;12.60;;;1.70;97.30;;;;;;5040815;28;20047;-79
2022/03/10 00:16:48;;;;;;;16.38;12.23;;;1.70;97.20;;;;;;5035953;28;20059;-81
2022/03/10 00:19:14;;;;;;;16.30;12.60;;;1.70;97.20;;;;;;5035707;28;20057;-81
2022/03/10 00:21:40;;;;;;;18.92;12.85;;;1.70;97.40;;;;;;5017802;28;20421;-80
2022/03/10 00:32:22;;;;;;;16.42;11.82;;;1.60;98.00;;;;;;5270154;22;20111;-80
2022/03/10 00:34:48;;;;;;;15.07;11.90;;;1.60;97.70;;;;;;5037355;28;20045;-80
2022/03/10 00:37:13;;;;;;;18.73;12.70;;;1.50;97.70;;;;;;5037911;28;20394;-80
2022/03/10 00:39:39;;;;;;;16.17;12.15;;;1.50;98.00;;;;;;5055258;28;20053;-80
2022/03/10 00:42:05;;;;;;;16.98;12.75;;;1.50;98.30;;;;;;5055522;28;20507;-80
2022/03/10 00:44:30;;;;;;;14.80;12.43;;;1.50;98.20;;;;;;5055019;28;20056;-81
2022/03/10 00:46:56;;;;;;;17.63;12.45;;;1.50;98.30;;;;;;5021222;28;20049;-79
2022/03/10 00:49:22;;;;;;;15.23;12.02;;;1.50;98.40;;;;;;5037636;28;20147;-80
2022/03/10 00:51:50;;;;;;;17.42;12.43;;;1.50;98.40;;;;;;5054887;28;20143;-81
2022/03/10 00:54:16;;;;;;;15.55;11.82;;;1.50;98.60;;;;;;5055217;28;20053;-80
2022/03/10 00:56:42;;;;;;;14.38;12.18;;;1.40;98.40;;;;;;5036656;28;20041;-81
2022/03/10 00:59:07;;;;;;;18.88;13.25;;;1.40;98.50;;;;;;5037675;28;20131;-80
2022/03/10 01:01:33;;;;;;;15.98;13.07;;;1.40;98.60;;;;;;5020673;28;20128;-81
2022/03/10 01:03:58;;;;;;;19.75;12.90;;;1.50;98.50;;;;;;5055148;28;20041;-81
2022/03/10 01:06:24;;;;;;;19.00;13.10;;;1.40;98.40;;;;;;5037126;28;20045;-81
2022/03/10 01:08:49;;;;;;;16.85;12.68;;;1.40;98.50;;;;;;5036865;28;20068;-80
2022/03/10 01:11:15;;;;;;;16.35;12.95;;;1.40;98.80;;;;;;5054952;28;20055;-80
2022/03/10 01:13:41;;;;;;;16.13;12.60;;;1.40;98.90;;;;;;5036684;28;20056;-81
2022/03/10 01:16:06;;;;;;;18.05;12.95;;;1.40;98.80;;;;;;5037367;28;20052;-79
2022/03/10 01:18:32;;;;;;;17.67;12.80;;;1.30;98.70;;;;;;5037351;28;20392;-80
2022/03/10 01:20:58;;;;;;;19.13;13.10;;;1.40;98.80;;;;;;5054463;28;20045;-80
2022/03/10 01:23:23;;;;;;;17.00;13.30;;;1.40;98.80;;;;;;5037086;28;20056;-80
2022/03/10 01:25:49;;;;;;;16.27;13.15;;;1.30;98.70;;;;;;5054220;28;20092;-80
2022/03/10 01:28:14;;;;;;;17.25;12.57;;;1.30;98.80;;;;;;5036811;28;20052;-80
2022/03/10 01:30:42;;;;;;;19.65;13.25;;;1.30;98.70;;;;;;5054131;28;20045;-80
2022/03/10 01:33:08;;;;;;;17.77;12.57;;;1.30;98.90;;;;;;5054302;28;20061;-80
2022/03/10 01:35:34;;;;;;;17.08;12.55;;;1.30;98.90;;;;;;5054315;28;20106;-81
2022/03/10 01:38:00;;;;;;;17.38;12.50;;;1.20;99.00;;;;;;5054035;28;20048;-80
2022/03/10 01:40:25;;;;;;;16.55;13.35;;;1.30;99.20;;;;;;5054324;28;20385;-80
2022/03/10 01:42:52;;;;;;;20.17;12.60;;;1.30;99.40;;;;;;5036848;28;20100;-78
2022/03/10 01:45:18;;;;;;;19.33;13.27;;;1.20;99.60;;;;;;5059059;28;20134;-78
2022/03/10 01:47:44;;;;;;;18.10;13.65;;;1.20;99.70;;;;;;5041187;28;20048;-78
2022/03/10 01:50:11;;;;;;;19.08;13.60;;;1.20;99.70;;;;;;5039158;28;20477;-80
2022/03/10 01:52:37;;;;;;;24.48;13.35;;;1.20;99.70;;;;;;5054210;28;20408;-81
2022/03/10 01:55:04;;;;;;;19.13;13.73;;;1.20;99.70;;;;;;5053650;28;20048;-81
2022/03/10 01:57:29;;;;;;;18.23;13.25;;;1.20;99.80;;;;;;5036413;28;20053;-80
2022/03/10 01:59:55;;;;;;;19.95;12.95;;;1.20;99.90;;;;;;5053296;28;20040;-80
2022/03/10 02:02:20;;;;;;;17.83;13.63;;;1.20;99.90;;;;;;5036045;28;20047;-80
2022/03/10 02:04:46;;;;;;;16.15;13.90;;;1.20;99.90;;;;;;5053328;28;20044;-81
2022/03/10 02:12:45;;;;;;;18.45;13.48;;;1.10;99.80;;;;;;5038209;28;20049;-82
2022/03/10 02:18:00;;;;;;;16.50;13.10;;;1.20;99.50;;;;;;5038459;28;20048;-81
2022/03/10 02:20:27;;;;;;;18.23;13.20;;;1.10;99.50;;;;;;5053575;28;20103;-81
2022/03/10 02:22:53;;;;;;;17.95;13.45;;;1.10;99.50;;;;;;5035295;28;20132;-81
2022/03/10 02:25:20;;;;;;;18.42;13.02;;;1.20;99.60;;;;;;5035880;28;20124;-80
2022/03/10 02:27:53;;;;;;;17.20;12.90;;;1.10;99.70;;;;;;5052824;28;20087;-81
2022/03/10 02:30:19;;;;;;;16.83;13.23;;;1.10;99.90;;;;;;5035748;28;20389;-79
2022/03/10 02:32:45;;;;;;;17.83;13.95;;;1.10;99.70;;;;;;5035059;28;20484;-81
2022/03/10 02:35:11;;;;;;;18.27;12.75;;;1.30;99.90;;;;;;5052892;28;20049;-80
2022/03/10 02:37:37;;;;;;;18.60;13.75;;;1.10;99.70;;;;;;5035639;28;20088;-80
2022/03/10 02:40:03;;;;;;;19.05;13.52;;;1.10;99.80;;;;;;5034925;28;20057;-80
2022/03/10 02:42:31;;;;;;;17.75;13.93;;;1.10;99.90;;;;;;5035652;28;20048;-80
2022/03/10 02:44:56;;;;;;;18.30;14.20;;;1.20;99.90;;;;;;5035181;28;20128;-81
2022/03/10 02:47:22;;;;;;;19.42;14.15;;;1.10;99.90;;;;;;5035420;28;20557;-80
2022/03/10 02:49:48;;;;;;;19.88;14.35;;;1.10;99.80;;;;;;5034691;28;20041;-82
2022/03/10 02:52:14;;;;;;;20.02;13.15;;;1.10;99.90;;;;;;5053111;28;20056;-80
2022/03/10 02:54:39;;;;;;;18.10;13.75;;;1.10;99.90;;;;;;5018783;28;20485;-81
2022/03/10 02:57:05;;;;;;;18.50;13.80;;;1.10;99.90;;;;;;5018378;28;20037;-81
2022/03/10 02:59:31;;;;;;;18.85;13.98;;;1.10;99.90;;;;;;5019055;28;20094;-80
2022/03/10 03:01:56;;;;;;;18.52;13.88;;;1.10;99.90;;;;;;5034813;28;20098;-81
2022/03/10 03:04:22;;;;;;;20.33;13.52;;;1.00;99.90;;;;;;5052794;28;20044;-81
2022/03/10 03:06:48;;;;;;;19.27;13.52;;;1.00;99.90;;;;;;5052884;28;20045;-81
2022/03/10 03:09:14;;;;;;;19.05;14.75;;;1.10;99.90;;;;;;5052781;28;20052;-81
2022/03/10 03:11:39;;;;;;;19.25;14.88;;;1.10;99.90;;;;;;5052854;28;20045;-80
2022/03/10 03:14:05;;;;;;;18.92;13.60;;;1.00;99.90;;;;;;5055144;28;20044;-78
2022/03/10 03:16:31;;;;;;;16.98;12.68;;;1.10;99.90;;;;;;5038452;28;20051;-78
2022/03/10 03:18:56;;;;;;;19.85;13.85;;;1.10;99.90;;;;;;5055679;28;20087;-77
2022/03/10 03:21:23;;;;;;;17.80;13.90;;;1.00;99.90;;;;;;5054225;28;20444;-80
2022/03/10 03:23:49;;;;;;;20.98;14.10;;;1.10;99.90;;;;;;5052752;28;20048;-80
2022/03/10 03:26:15;;;;;;;18.13;13.77;;;1.00;99.90;;;;;;5034582;28;20124;-80
2022/03/10 03:28:41;;;;;;;22.38;14.00;;;1.00;99.90;;;;;;5052644;28;20042;-80
2022/03/10 03:31:07;;;;;;;17.67;13.07;;;1.00;99.90;;;;;;5052300;28;20171;-80
2022/03/10 03:33:33;;;;;;;17.23;13.52;;;1.00;99.90;;;;;;5052747;28;20053;-80
2022/03/10 03:35:58;;;;;;;20.38;13.70;;;1.10;99.90;;;;;;5034485;28;20105;-80
2022/03/10 03:38:24;;;;;;;17.77;13.38;;;1.00;99.90;;;;;;5052715;28;20393;-80
2022/03/10 03:40:50;;;;;;;19.75;13.75;;;1.00;99.90;;;;;;5034778;28;20393;-79
2022/03/10 03:43:15;;;;;;;24.08;14.00;;;1.00;99.90;;;;;;5052494;28;20045;-80
2022/03/10 03:45:41;;;;;;;18.15;13.43;;;1.00;99.90;;;;;;5052461;28;20045;-80
2022/03/10 03:48:07;;;;;;;18.67;13.35;;;0.90;99.90;;;;;;5018016;28;20041;-80
2022/03/10 03:50:32;;;;;;;18.02;13.98;;;0.90;99.90;;;;;;5034777;28;20128;-80
2022/03/10 03:52:58;;;;;;;19.48;13.98;;;0.90;99.90;;;;;;5051973;28;20052;-81
2022/03/10 03:55:24;;;;;;;20.60;13.98;;;0.90;99.90;;;;;;5052371;28;20497;-80
2022/03/10 03:57:49;;;;;;;19.50;13.93;;;0.90;99.90;;;;;;5052621;28;20040;-81
2022/03/10 04:00:18;;;;;;;21.38;13.77;;;0.90;99.90;;;;;;5051907;28;20044;-81
2022/03/10 04:02:45;;;;;;;18.08;14.35;;;0.80;99.90;;;;;;5052283;28;20049;-81
2022/03/10 04:05:10;;;;;;;18.88;13.65;;;0.80;99.90;;;;;;5051822;28;20465;-81
2022/03/10 04:07:36;;;;;;;19.73;14.55;;;0.80;99.90;;;;;;5034574;28;20084;-81
2022/03/10 04:10:03;;;;;;;19.52;14.75;;;0.80;99.90;;;;;;5051708;28;20048;-81
2022/03/10 04:12:29;;;;;;;19.40;14.07;;;0.90;99.90;;;;;;5052461;28;20052;-81
2022/03/10 04:14:54;;;;;;;20.42;14.93;;;0.80;99.90;;;;;;5052038;28;20049;-81
2022/03/10 04:17:20;;;;;;;19.60;14.90;;;0.80;99.90;;;;;;5051433;28;20048;-80
2022/03/10 04:19:45;;;;;;;23.17;14.93;;;0.80;99.90;;;;;;5051739;28;20102;-80
2022/03/10 04:22:11;;;;;;;21.42;14.60;;;0.80;99.90;;;;;;5051629;28;20045;-81
2022/03/10 04:24:37;;;;;;;19.17;14.23;;;0.80;99.90;;;;;;5052066;28;20120;-80
2022/03/10 04:27:03;;;;;;;19.85;13.88;;;0.80;99.90;;;;;;5051637;28;20080;-81
2022/03/10 04:29:29;;;;;;;22.17;13.95;;;0.80;99.90;;;;;;5051936;28;20574;-81
2022/03/10 04:31:54;;;;;;;22.23;14.32;;;0.80;99.90;;;;;;5035421;28;20044;-80
2022/03/10 04:34:20;;;;;;;23.30;14.73;;;0.80;99.90;;;;;;5054663;28;20100;-81
2022/03/10 04:36:46;;;;;;;19.92;14.05;;;0.70;99.90;;;;;;5055577;28;20052;-80
2022/03/10 04:39:11;;;;;;;18.75;14.05;;;0.70;99.90;;;;;;5039203;28;20440;-78
2022/03/10 04:41:37;;;;;;;17.75;14.13;;;0.70;99.90;;;;;;5040212;28;20045;-78
2022/03/10 04:44:03;;;;;;;20.05;14.10;;;0.70;99.90;;;;;;5039951;28;20044;-78
2022/03/10 04:46:29;;;;;;;20.08;14.40;;;0.70;99.90;;;;;;5038593;28;20044;-80
2022/03/10 04:48:54;;;;;;;21.30;14.10;;;0.70;99.90;;;;;;5055322;28;20045;-80
2022/03/10 04:51:20;;;;;;;19.60;14.07;;;0.70;99.90;;;;;;5020799;28;20041;-80
2022/03/10 04:53:46;;;;;;;18.58;14.50;;;0.70;99.90;;;;;;5055133;28;20102;-81
2022/03/10 04:56:12;;;;;;;20.95;14.93;;;0.70;99.90;;;;;;5037393;28;20044;-81
2022/03/10 04:58:38;;;;;;;18.63;13.68;;;0.70;99.90;;;;;;5037177;28;20055;-80
2022/03/10 05:01:03;;;;;;;17.70;14.40;;;0.70;99.90;;;;;;5037322;28;20040;-81
2022/03/10 05:03:31;;;;;;;19.95;14.15;;;0.70;99.90;;;;;;5054849;28;20127;-81
2022/03/10 05:05:57;;;;;;;19.20;13.73;;;0.60;99.90;;;;;;5055104;28;20056;-80
2022/03/10 05:08:22;;;;;;;19.02;14.23;;;0.60;99.90;;;;;;5036913;28;20389;-81
2022/03/10 05:10:48;;;;;;;18.42;14.38;;;0.60;99.90;;;;;;5021140;28;20056;-80
2022/03/10 05:13:14;;;;;;;17.35;13.90;;;0.60;99.90;;;;;;5054473;28;20056;-80
2022/03/10 05:15:40;;;;;;;18.55;13.73;;;0.50;99.90;;;;;;5055145;28;20044;-80
2022/03/10 05:18:05;;;;;;;20.80;14.38;;;0.50;99.90;;;;;;5054723;28;20164;-79
2022/03/10 05:20:31;;;;;;;18.83;14.10;;;0.60;99.90;;;;;;5054417;28;20099;-80
2022/03/10 05:22:58;;;;;;;20.45;14.40;;;0.50;99.90;;;;;;5037193;28;20045;-82
2022/03/10 05:25:26;;;;;;;21.73;14.98;;;0.50;99.90;;;;;;5020293;28;20056;-78
2022/03/10 05:27:51;;;;;;;18.17;14.43;;;0.50;99.90;;;;;;5054651;28;20315;-79
2022/03/10 05:30:18;;;;;;;20.45;14.43;;;0.50;99.90;;;;;;5054575;28;20132;-79
2022/03/10 05:32:44;;;;;;;18.05;13.70;;;0.50;99.90;;;;;;5036757;28;20089;-80
2022/03/10 05:35:10;;;;;;;19.90;14.32;;;0.50;99.90;;;;;;5036352;28;20096;-78
2022/03/10 05:37:37;;;;;;;19.45;14.93;;;0.50;99.90;;;;;;5036848;28;20132;-80
2022/03/10 05:40:09;;;;;;;18.17;14.77;;;0.50;99.90;;;;;;5004247;28;20045;-79
2022/03/10 05:42:37;;;;;;;19.30;14.35;;;0.50;99.90;;;;;;5053977;28;20084;-81
2022/03/10 05:45:03;;;;;;;19.35;14.07;;;0.50;99.90;;;;;;5053541;28;20119;-77
2022/03/10 05:47:29;;;;;;;18.05;13.82;;;0.40;99.90;;;;;;5053864;28;20132;-76
2022/03/10 05:49:54;;;;;;;18.92;14.18;;;0.40;99.90;;;;;;5036427;28;20545;-77
2022/03/10 05:52:20;;;;;;;19.85;13.90;;;0.50;99.90;;;;;;5036009;28;20084;-81
2022/03/10 05:54:46;;;;;;;18.85;14.65;;;0.40;99.90;;;;;;5019808;28;20045;-80
2022/03/10 05:57:11;;;;;;;20.98;14.25;;;0.40;99.90;;;;;;5053696;28;20071;-82
2022/03/10 05:59:37;;;;;;;19.85;14.75;;;0.50;99.90;;;;;;5053823;28;20473;-81
2022/03/10 06:02:03;;;;;;;17.80;14.27;;;0.50;99.90;;;;;;5053888;28;20048;-82
2022/03/10 06:04:28;;;;;;;17.83;13.85;;;0.50;99.90;;;;;;5035376;28;20045;-82
2022/03/10 06:06:54;;;;;;;18.50;13.80;;;0.50;99.90;;;;;;5036158;28;20147;-82
2022/03/10 06:09:20;;;;;;;20.08;14.40;;;0.60;99.90;;;;;;5053310;28;20049;-80
2022/03/10 06:11:45;;;;;;;18.48;13.65;;;0.60;99.90;;;;;;5019703;28;20068;-79
2022/03/10 06:14:11;;;;;;;19.25;13.05;;;0.60;99.90;;;;;;5035854;28;20124;-79
2022/03/10 06:16:37;;;;;;;19.77;13.25;;;0.60;99.90;;;;;;5035410;28;20435;-81
2022/03/10 06:19:03;;;;;;;19.42;13.00;;;0.70;99.90;;;;;;5036059;28;20049;-79
2022/03/10 06:21:29;;;;;;;18.65;13.73;;;0.80;99.90;;;;;;5053205;28;20053;-80
2022/03/10 06:23:55;;;;;;;20.40;14.52;;;0.80;99.90;;;;;;5053480;28;20495;-80
2022/03/10 06:26:20;;;;;;;18.83;13.88;;;0.80;99.90;;;;;;5052651;28;20059;-79
2022/03/10 06:28:47;;;;;;;20.52;14.18;;;0.90;99.90;;;;;;5053401;28;20127;-78
2022/03/10 06:31:12;;;;;;;16.25;12.65;;;0.90;99.90;;;;;;5053453;28;20405;-80
2022/03/10 06:33:38;;;;;;;20.08;13.52;;;1.00;99.90;;;;;;5052787;28;20061;-80
2022/03/10 06:36:05;;;;;;;18.17;13.82;;;1.10;99.90;;;;;;5035647;28;20110;-80
2022/03/10 06:38:31;;;;;;;19.25;14.27;;;1.10;99.90;;;;;;5018937;28;20386;-79
2022/03/10 06:40:57;;;;;;;20.73;14.05;;;1.20;99.90;;;;;;5053163;28;20084;-80
2022/03/10 06:43:22;;;;;;;20.17;14.02;;;1.30;99.90;;;;;;5035221;28;20079;-80
2022/03/10 06:45:48;;;;;;;18.85;13.45;;;1.30;99.80;;;;;;5035490;28;20057;-79
2022/03/10 06:48:14;;;;;;;19.50;13.68;;;1.40;99.80;;;;;;5052886;28;20469;-80
2022/03/10 06:50:39;;;;;;;19.52;13.38;;;1.40;99.50;;;;;;5052647;28;20119;-80
2022/03/10 06:53:05;;;;;;;19.00;13.52;;;1.50;98.90;;;;;;5052992;28;20455;-78
2022/03/10 06:55:31;;;;;;;18.23;13.68;;;1.50;98.50;;;;;;5052163;28;20124;-78
2022/03/10 06:57:56;;;;;;;18.23;13.05;;;1.70;98.20;;;;;;5035704;28;20071;-81
2022/03/10 07:00:23;;;;;;;19.15;13.32;;;1.80;97.40;;;;;;5018384;28;20068;-79
2022/03/10 07:02:49;;;;;;;18.42;13.30;;;2.00;96.70;;;;;;5035228;28;20053;-78
2022/03/10 07:05:14;;;;;;;19.25;13.70;;;2.10;96.00;;;;;;5035115;28;20033;-77
2022/03/10 07:07:40;;;;;;;19.73;13.82;;;2.20;95.30;;;;;;5052325;28;20815;-76
2022/03/10 07:10:07;;;;;;;18.00;13.05;;;2.30;94.70;;;;;;5052900;28;20055;-77
2022/03/10 07:12:38;;;;;;;18.10;13.18;;;2.50;94.50;;;;;;5034727;28;20179;-83
2022/03/10 07:15:05;;;;;;;19.85;13.52;;;2.60;93.90;;;;;;5018897;28;20041;-82
2022/03/10 07:17:30;;;;;;;18.92;13.23;;;2.70;93.60;;;;;;4985612;28;20055;-81
2022/03/10 07:19:56;;;;;;;21.25;13.52;;;2.80;92.80;;;;;;5034892;28;20053;-78
2022/03/10 07:22:22;;;;;;;20.33;14.00;;;2.80;92.90;;;;;;5034884;28;20198;-83
2022/03/10 07:24:48;;;;;;;21.23;13.40;;;2.90;92.80;;;;;;5052485;28;20041;-80
2022/03/10 07:27:13;;;;;;;19.15;13.52;;;3.00;92.70;;;;;;5052554;28;20095;-78
2022/03/10 07:29:39;;;;;;;18.15;14.20;;;2.90;92.50;;;;;;5052009;28;20418;-77
2022/03/10 07:32:05;;;;;;;23.13;13.73;;;3.10;92.50;;;;;;5052545;28;20041;-77
2022/03/10 07:34:31;;;;;;;20.27;14.10;;;3.10;92.10;;;;;;5017490;28;20140;-78
2022/03/10 07:36:57;;;;;;;22.38;14.23;;;3.10;92.00;;;;;;5018613;28;20056;-78
2022/03/10 07:39:23;;;;;;;21.52;14.98;;;3.20;92.00;;;;;;5052457;28;20049;-77
2022/03/10 07:41:48;;;;;;;18.33;14.02;;;3.30;91.90;;;;;;5051799;28;20048;-77
2022/03/10 07:44:14;;;;;;;17.27;13.57;;;3.30;91.50;;;;;;5034630;28;20045;-78
2022/03/10 07:46:39;;;;;;;18.33;14.15;;;3.40;91.20;;;;;;5051876;28;20045;-79
2022/03/10 07:49:05;;;;;;;20.05;14.27;;;3.40;91.10;;;;;;5052485;28;20056;-81
2022/03/10 07:51:31;;;;;;;18.77;14.82;;;3.60;91.20;;;;;;5051702;28;20053;-79
2022/03/10 07:53:56;;;;;;;23.20;14.65;;;3.50;91.30;;;;;;5034319;28;20389;-78
2022/03/10 07:56:22;;;;;;;19.63;14.00;;;3.50;91.60;;;;;;5034643;28;20045;-78
2022/03/10 07:58:48;;;;;;;21.92;13.88;;;3.50;91.60;;;;;;5034648;28;20044;-78
2022/03/10 08:01:13;;;;;;;19.85;13.65;;;3.60;91.30;;;;;;5019138;28;20389;-76
2022/03/10 08:03:39;;;;;;;20.23;14.07;;;3.70;91.20;;;;;;5054359;28;20084;-79
2022/03/10 08:06:05;;;;;;;19.42;14.35;;;3.70;91.20;;;;;;5052113;28;20045;-79
2022/03/10 08:08:31;;;;;;;19.35;14.45;;;3.80;91.30;;;;;;5021351;28;20432;-76
2022/03/10 08:10:57;;;;;;;21.48;14.32;;;3.80;91.00;;;;;;5055906;28;20398;-77
2022/03/10 08:13:26;;;;;;;20.10;15.02;;;4.00;91.00;;;;;;5038029;28;20045;-78
2022/03/10 08:15:53;;;;;;;19.77;14.65;;;4.00;91.00;;;;;;5038148;28;20084;-78
2022/03/10 08:18:20;;;;;;;19.20;14.50;;;4.00;91.30;;;;;;5038152;28;20455;-78
2022/03/10 08:20:46;;;;;;;17.30;14.02;;;4.10;91.30;;;;;;5020977;28;20511;-78
2022/03/10 08:23:12;;;;;;;20.25;14.45;;;4.20;91.30;;;;;;5055862;28;20045;-77
2022/03/10 08:25:38;;;;;;;23.83;14.30;;;4.30;91.00;;;;;;5055234;28;20382;-78
2022/03/10 08:28:05;;;;;;;17.77;14.02;;;4.30;91.00;;;;;;5055581;28;20053;-78
2022/03/10 08:30:31;;;;;;;20.27;14.30;;;4.40;91.00;;;;;;5037688;28;20088;-78
2022/03/10 08:32:57;;;;;;;17.23;13.95;;;4.40;91.40;;;;;;5037287;28;20083;-83
2022/03/10 08:35:23;;;;;;;20.48;13.85;;;4.40;91.00;;;;;;5021682;28;20374;-80
2022/03/10 08:37:50;;;;;;;18.75;14.05;;;4.50;90.60;;;;;;5055142;28;20084;-80
2022/03/10 08:40:17;;;;;;;19.00;13.52;;;4.60;90.50;;;;;;5055675;28;20045;-85
2022/03/10 08:42:44;;;;;;;19.75;13.85;;;4.70;90.10;;;;;;5037606;28;20044;-79
2022/03/10 08:45:10;;;;;;;20.92;13.98;;;4.80;89.30;;;;;;5054596;28;20131;-85
2022/03/10 08:47:35;;;;;;;19.38;13.88;;;4.90;89.10;;;;;;5037200;28;20052;-79
2022/03/10 08:50:01;;;;;;;19.75;14.73;;;5.00;88.60;;;;;;5055156;28;20060;-79
2022/03/10 08:52:27;;;;;;;19.65;14.25;;;5.00;88.70;;;;;;5022040;28;20056;-80
2022/03/10 08:54:52;;;;;;;18.70;14.35;;;5.00;88.50;;;;;;5054509;28;20087;-79
2022/03/10 08:57:18;;;;;;;19.77;14.40;;;5.10;88.10;;;;;;5055230;28;20477;-79
2022/03/10 08:59:45;;;;;;;18.13;14.30;;;5.10;88.10;;;;;;5054747;28;20063;-79
2022/03/10 09:02:12;;;;;;;20.98;14.77;;;5.20;88.40;;;;;;5037419;28;20053;-79
2022/03/10 09:04:40;;;;;;;20.60;14.63;;;5.20;87.40;;;;;;5054643;28;20052;-79
2022/03/10 09:07:06;;;;;;;19.30;14.57;;;5.30;86.90;;;;;;5054765;28;20106;-79
2022/03/10 09:09:32;;;;;;;18.80;14.65;;;5.30;87.10;;;;;;5054567;28;20045;-79
2022/03/10 09:11:57;;;;;;;21.98;14.02;;;5.40;86.90;;;;;;5036747;28;20404;-79
2022/03/10 09:14:23;;;;;;;22.25;14.82;;;5.50;84.50;;;;;;5036896;28;20527;-79
2022/03/10 09:16:51;;;;;;;17.70;14.68;;;5.70;84.10;;;;;;5054161;28;20094;-79
2022/03/10 09:19:17;;;;;;;19.77;14.63;;;5.80;82.80;;;;;;5054356;28;20052;-80
2022/03/10 09:21:42;;;;;;;22.52;14.82;;;5.90;81.60;;;;;;5054042;28;20107;-79
2022/03/10 09:24:08;;;;;;;19.33;14.30;;;5.90;81.80;;;;;;5036663;28;20045;-79
2022/03/10 09:26:34;;;;;;;20.90;14.70;;;6.20;81.10;;;;;;5054503;28;20048;-80
2022/03/10 09:29:00;;;;;;;19.50;14.52;;;6.30;80.90;;;;;;5054036;28;20288;-79
2022/03/10 09:31:26;;;;;;;21.63;15.07;;;6.40;80.90;;;;;;5054286;28;20056;-79
2022/03/10 09:33:51;;;;;;;18.95;14.75;;;6.50;79.20;;;;;;5053646;28;20049;-78
2022/03/10 09:36:17;;;;;;;21.35;14.55;;;6.60;76.80;;;;;;5036745;28;20049;-78
2022/03/10 09:38:43;;;;;;;19.33;14.40;;;6.80;75.90;;;;;;5053638;28;20036;-80
2022/03/10 09:41:08;;;;;;;18.33;14.02;;;6.90;76.30;;;;;;5054212;28;20405;-79
2022/03/10 09:43:35;;;;;;;18.27;14.32;;;6.90;75.90;;;;;;5054200;28;20047;-80
2022/03/10 09:46:01;;;;;;;19.05;14.23;;;7.00;76.30;;;;;;5019571;28;20495;-79
2022/03/10 09:48:26;;;;;;;18.98;14.55;;;7.00;75.60;;;;;;5019897;28;20044;-80
2022/03/10 09:50:52;;;;;;;18.33;13.73;;;7.20;73.60;;;;;;5035743;28;20048;-80
2022/03/10 09:53:20;;;;;;;17.90;14.02;;;7.30;71.90;;;;;;5054126;28;20098;-80
2022/03/10 09:55:46;;;;;;;19.63;14.13;;;7.50;70.80;;;;;;5053504;28;20051;-80
2022/03/10 09:58:12;;;;;;;21.40;15.05;;;7.60;71.00;;;;;;5053796;28;20486;-80
2022/03/10 10:00:37;;;;;;;20.60;15.02;;;7.70;69.10;;;;;;5053476;28;20448;-80
2022/03/10 10:03:03;;;;;;;22.17;14.35;;;7.80;67.70;;;;;;5053140;28;20041;-79
2022/03/10 10:05:31;;;;;;;19.88;15.02;;;7.90;67.40;;;;;;5036141;28;20075;-80
2022/03/10 10:08:09;;;;;;;17.92;14.23;;;8.00;67.30;;;;;;5035519;28;20048;-81
2022/03/10 10:10:36;;;;;;;21.92;14.60;;;8.20;66.30;;;;;;5053649;28;20048;-80
2022/03/10 10:13:06;;;;;;;18.75;14.23;;;8.20;66.20;;;;;;5052777;28;20536;-81
2022/03/10 10:15:35;;;;;;;18.83;14.30;;;8.40;65.00;;;;;;5036289;28;20124;-80
2022/03/10 10:18:01;;;;;;;19.02;14.30;;;8.40;65.30;;;;;;5035364;28;20513;-80
2022/03/10 10:20:44;;;;;;;21.75;15.50;;;8.40;65.50;;;;;;5035521;28;20041;-80
2022/03/10 10:23:23;;;;;;;20.70;14.98;;;8.60;65.00;;;;;;5053003;28;20466;-80
2022/03/10 10:26:09;;;;;;;19.38;14.80;;;8.70;65.30;;;;;;5053098;28;20133;-81
2022/03/10 10:28:36;;;;;;;19.05;14.50;;;8.70;63.40;;;;;;5037137;28;20063;-81
2022/03/10 10:31:10;;;;;;;21.63;15.80;;;8.80;63.70;;;;;;5034678;28;20049;-81
2022/03/10 10:33:36;;;;;;;20.02;14.55;;;8.90;64.00;;;;;;5035867;28;20056;-80
2022/03/10 10:36:18;;;;;;;20.52;14.50;;;8.90;65.00;;;;;;5052967;28;20056;-81
2022/03/10 10:38:47;;;;;;;18.63;14.70;;;9.00;62.30;;;;;;5053356;28;20045;-80
2022/03/10 10:41:28;;;;;;;20.40;14.82;;;9.00;62.10;;;;;;5052599;28;20060;-80
2022/03/10 10:43:56;;;;;;;19.95;15.52;;;9.20;61.00;;;;;;5052485;28;20106;-81
2022/03/10 10:46:41;;;;;;;18.40;15.15;;;9.30;62.20;;;;;;5035285;28;20123;-80
2022/03/10 10:49:15;;;;;;;25.27;15.45;;;9.50;58.70;;;;;;5052500;28;20084;-80
2022/03/10 10:51:45;;;;;;;18.60;14.93;;;9.50;60.10;;;;;;5035683;28;20088;-80
2022/03/10 10:54:31;;;;;;;20.17;15.50;;;9.60;60.70;;;;;;5052375;28;20080;-80
2022/03/10 10:57:07;;;;;;;20.73;15.45;;;9.70;58.60;;;;;;5052338;28;20090;-80
2022/03/10 10:59:40;;;;;;;22.73;16.27;;;9.80;59.60;;;;;;5052713;28;20045;-80
2022/03/10 11:02:09;;;;;;;24.60;16.83;;;9.90;58.80;;;;;;5034664;28;20136;-80
2022/03/10 11:04:36;;;;;;;23.73;16.17;;;9.90;58.40;;;;;;5035396;28;20437;-80
2022/03/10 11:07:02;;;;;;;22.20;16.00;;;10.00;58.10;;;;;;5002135;28;20048;-80
2022/03/10 11:09:28;;;;;;;20.85;16.35;;;10.10;58.80;;;;;;5052993;28;20041;-78
2022/03/10 11:11:53;;;;;;;24.67;15.98;;;10.10;58.70;;;;;;5034813;28;20048;-78
2022/03/10 11:14:20;;;;;;;20.33;16.42;;;10.10;58.60;;;;;;5034915;28;20366;-78
2022/03/10 11:16:45;;;;;;;20.95;16.60;;;10.20;58.40;;;;;;5034817;28;20110;-79
2022/03/10 11:19:12;;;;;;;20.92;16.63;;;10.30;58.50;;;;;;5017883;28;20378;-80
2022/03/10 11:21:52;;;;;;;21.25;16.92;;;10.40;57.80;;;;;;5018720;28;20132;-80
2022/03/10 11:24:41;;;;;;;24.08;16.67;;;10.50;56.30;;;;;;5052105;28;20127;-80
2022/03/10 11:27:13;;;;;;;23.67;16.73;;;10.70;54.70;;;;;;5023056;28;20060;-79
2022/03/10 11:29:39;;;;;;;21.55;17.00;;;10.80;56.00;;;;;;5034710;28;20128;-80
2022/03/10 11:32:06;;;;;;;21.60;17.20;;;10.80;56.80;;;;;;5034341;28;20060;-80
2022/03/10 11:34:52;;;;;;;21.08;17.10;;;10.90;56.90;;;;;;5017997;28;20057;-79
2022/03/10 11:37:37;;;;;;;23.17;17.30;;;11.00;55.40;;;;;;5052036;28;20053;-80
2022/03/10 11:40:04;;;;;;;22.23;17.40;;;11.10;56.40;;;;;;5034242;28;20044;-81
2022/03/10 11:42:31;;;;;;;24.15;17.00;;;11.20;56.90;;;;;;5054727;28;20045;-79
2022/03/10 11:45:09;;;;;;;22.75;17.33;;;11.20;55.60;;;;;;5038918;28;20136;-79
2022/03/10 11:47:36;;;;;;;21.70;16.70;;;11.40;56.00;;;;;;5056492;28;20041;-81
2022/03/10 11:50:20;;;;;;;22.27;17.90;;;11.50;55.70;;;;;;5038221;28;20049;-80
2022/03/10 11:52:55;;;;;;;22.05;17.35;;;11.70;53.50;;;;;;5056185;28;20136;-80
2022/03/10 11:55:21;;;;;;;26.02;17.85;;;11.70;54.30;;;;;;5055873;28;20060;-80
2022/03/10 11:57:55;;;;;;;23.15;17.85;;;11.80;53.50;;;;;;5056531;28;20052;-79
2022/03/10 12:00:46;;;;;;;24.52;17.52;;;11.90;53.50;;;;;;5055463;28;20156;-80
2022/03/10 12:03:18;;;;;;;23.17;18.10;;;11.90;53.80;;;;;;5055779;28;20107;-79
2022/03/10 12:06:12;;;;;;;23.27;17.90;;;11.90;53.40;;;;;;5038483;28;20057;-80
2022/03/10 12:08:40;;;;;;;22.75;17.30;;;12.00;51.90;;;;;;5055978;28;20091;-81
2022/03/10 12:11:15;;;;;;;23.30;17.73;;;12.10;53.10;;;;;;5055479;28;20467;-81
2022/03/10 12:13:44;;;;;;;20.65;16.77;;;12.10;51.80;;;;;;5055645;28;20060;-80
2022/03/10 12:16:30;;;;;;;22.92;17.58;;;12.10;52.80;;;;;;5037906;28;20053;-80
2022/03/10 12:18:56;;;;;;;21.75;17.33;;;12.20;52.00;;;;;;5044860;28;20092;-80
2022/03/10 12:21:22;;;;;;;21.52;16.83;;;12.20;53.40;;;;;;5055473;28;20520;-79
2022/03/10 12:23:57;;;;;;;21.15;16.55;;;12.20;52.60;;;;;;5055616;28;20480;-80
2022/03/10 12:26:33;;;;;;;21.83;16.70;;;12.30;51.80;;;;;;5037530;28;20045;-80
2022/03/10 12:29:03;;;;;;;21.95;17.27;;;12.50;51.20;;;;;;5021561;28;20057;-80
2022/03/10 12:31:32;;;;;;;23.27;17.23;;;12.50;51.60;;;;;;5037743;28;20057;-81
2022/03/10 12:34:09;;;;;;;21.13;16.70;;;12.50;52.10;;;;;;5055147;28;20049;-80
2022/03/10 12:36:36;;;;;;;22.92;17.67;;;12.60;50.10;;;;;;5021527;28;20084;-79
2022/03/10 12:39:05;;;;;;;21.92;16.13;;;12.70;51.50;;;;;;5055346;28;20049;-81
2022/03/10 12:41:33;;;;;;;21.40;16.90;;;12.70;51.80;;;;;;5054815;28;20049;-79
2022/03/10 12:44:01;;;;;;;22.35;17.40;;;12.70;51.40;;;;;;5055347;28;20049;-80
2022/03/10 12:46:28;;;;;;;22.88;17.88;;;12.80;51.00;;;;;;5054903;28;20534;-80
2022/03/10 12:49:04;;;;;;;21.10;16.48;;;12.80;51.10;;;;;;5037619;28;20052;-80
2022/03/10 12:51:33;;;;;;;23.10;17.17;;;12.90;51.10;;;;;;5054935;28;20059;-80
2022/03/10 12:53:59;;;;;;;23.15;16.33;;;12.90;50.30;;;;;;5020196;28;20048;-80